Time;durP1;ratioP1;P1;durP2;ratioP2;P2;SDS_P1;SDS_P2;PMS_P1;PMS_P2;Temp;Humidity;BMP_temperature;BMP_pressure;BME280_temperature;BME280_humidity;BME280_pressure;Samples;Min_cycle;Max_cycle;Signal;HPM_P1;HPM_P2
2023/09/04 00:00:25;;;;;;;1.15;0.68;;;;;;;;;;5132251;27;20100;-74
2023/09/04 00:02:51;;;;;;;1.65;0.82;;;;;;;;;;5131908;27;20043;-75
2023/09/04 00:05:18;;;;;;;1.35;0.77;;;;;;;;;;5131905;27;20518;-72
2023/09/04 00:07:45;;;;;;;1.50;0.90;;;;;;;;;;5113815;27;20043;-72
2023/09/04 00:10:12;;;;;;;1.55;0.80;;;;;;;;;;5113749;27;20061;-77
2023/09/04 00:12:39;;;;;;;1.58;1.00;;;;;;;;;;5131955;27;20047;-72
2023/09/04 00:15:06;;;;;;;1.80;0.77;;;;;;;;;;5132083;27;20055;-75
2023/09/04 00:17:33;;;;;;;1.83;1.00;;;;;;;;;;5131745;27;20597;-76
2023/09/04 00:19:59;;;;;;;1.02;0.80;;;;;;;;;;5131439;27;20058;-72
2023/09/04 00:22:27;;;;;;;1.50;0.80;;;;;;;;;;5138071;27;20051;-76
2023/09/04 00:24:54;;;;;;;1.00;0.80;;;;;;;;;;5143058;27;20043;-75
2023/09/04 00:27:21;;;;;;;0.82;0.70;;;;;;;;;;5143235;27;20043;-73
2023/09/04 00:29:47;;;;;;;1.48;0.80;;;;;;;;;;5143332;27;20074;-76
2023/09/04 00:32:14;;;;;;;2.47;1.00;;;;;;;;;;5142996;27;20266;-76
2023/09/04 00:34:40;;;;;;;0.95;0.60;;;;;;;;;;5143411;27;20047;-71
2023/09/04 00:37:09;;;;;;;1.17;0.80;;;;;;;;;;5143184;27;20043;-75
2023/09/04 00:39:36;;;;;;;1.52;0.90;;;;;;;;;;5141874;27;20369;-72
2023/09/04 00:42:03;;;;;;;1.15;0.70;;;;;;;;;;5142342;27;20049;-71
2023/09/04 00:44:30;;;;;;;1.75;0.70;;;;;;;;;;5142403;27;20049;-76
2023/09/04 00:46:58;;;;;;;1.92;0.90;;;;;;;;;;5142462;27;20047;-76
2023/09/04 00:49:25;;;;;;;2.65;0.85;;;;;;;;;;5143464;27;20106;-76
2023/09/04 00:51:52;;;;;;;1.50;0.85;;;;;;;;;;5142305;27;20047;-75
2023/09/04 00:54:19;;;;;;;1.50;0.80;;;;;;;;;;5142363;27;20305;-76
2023/09/04 00:56:48;;;;;;;1.67;0.90;;;;;;;;;;5142488;27;20271;-75
2023/09/04 00:59:15;;;;;;;1.90;1.00;;;;;;;;;;5142613;27;20050;-76
2023/09/04 01:01:42;;;;;;;1.58;0.75;;;;;;;;;;5142461;27;20249;-74
2023/09/04 01:04:10;;;;;;;1.25;0.73;;;;;;;;;;5142718;27;20387;-75
2023/09/04 01:06:38;;;;;;;5.22;0.95;;;;;;;;;;5141188;27;20096;-75
2023/09/04 01:09:05;;;;;;;1.30;0.90;;;;;;;;;;5130453;27;20047;-76
2023/09/04 01:11:48;;;;;;;2.13;0.90;;;;;;;;;;5130164;27;20552;-76
2023/09/04 01:14:18;;;;;;;1.10;0.80;;;;;;;;;;5130687;27;20047;-72
2023/09/04 01:16:46;;;;;;;1.15;0.75;;;;;;;;;;5139932;27;20047;-71
2023/09/04 01:19:13;;;;;;;2.03;1.00;;;;;;;;;;5142224;27;20398;-73
2023/09/04 01:21:39;;;;;;;1.70;0.95;;;;;;;;;;5142419;27;20043;-74
2023/09/04 01:24:08;;;;;;;1.60;0.90;;;;;;;;;;5141968;27;20049;-75
2023/09/04 01:26:58;;;;;;;1.23;0.80;;;;;;;;;;5142301;27;20067;-73
2023/09/04 01:29:42;;;;;;;1.77;0.90;;;;;;;;;;5142147;27;20242;-73
2023/09/04 01:32:12;;;;;;;1.58;0.85;;;;;;;;;;5141724;27;20361;-76
2023/09/04 01:34:46;;;;;;;2.15;0.93;;;;;;;;;;5142092;27;20050;-75
2023/09/04 01:37:14;;;;;;;1.48;1.00;;;;;;;;;;5139864;27;20069;-76
2023/09/04 01:39:42;;;;;;;1.92;1.08;;;;;;;;;;5130003;27;20058;-75
2023/09/04 01:42:08;;;;;;;3.08;1.00;;;;;;;;;;5129942;27;20059;-74
2023/09/04 01:44:35;;;;;;;2.25;1.02;;;;;;;;;;5130357;27;20046;-76
2023/09/04 01:47:02;;;;;;;2.03;0.98;;;;;;;;;;5129797;27;20100;-76
2023/09/04 01:49:29;;;;;;;2.65;1.20;;;;;;;;;;5129984;27;20043;-74
2023/09/04 01:51:59;;;;;;;1.75;0.98;;;;;;;;;;5129826;27;20066;-76
2023/09/04 01:54:27;;;;;;;1.90;1.00;;;;;;;;;;5129535;27;20058;-76
2023/09/04 01:56:53;;;;;;;2.13;1.05;;;;;;;;;;5128912;27;20409;-76
2023/09/04 01:59:20;;;;;;;1.83;0.95;;;;;;;;;;5129928;27;20407;-76
2023/09/04 02:01:47;;;;;;;2.90;1.17;;;;;;;;;;5137006;27;20114;-76
2023/09/04 02:04:14;;;;;;;2.25;0.93;;;;;;;;;;5141541;27;20444;-75
2023/09/04 02:06:40;;;;;;;1.90;1.10;;;;;;;;;;5141710;27;20051;-74
2023/09/04 02:09:07;;;;;;;1.92;0.88;;;;;;;;;;5141357;27;20051;-76
2023/09/04 02:11:34;;;;;;;2.13;1.00;;;;;;;;;;5141473;27;20082;-76
2023/09/04 02:14:01;;;;;;;2.67;1.02;;;;;;;;;;5141464;27;20097;-75
2023/09/04 02:16:27;;;;;;;1.85;1.00;;;;;;;;;;5141584;27;20114;-76
2023/09/04 02:18:55;;;;;;;1.67;1.00;;;;;;;;;;5141778;28;20074;-75
2023/09/04 02:21:22;;;;;;;1.55;1.00;;;;;;;;;;5141638;28;20120;-75
2023/09/04 02:23:48;;;;;;;2.30;1.05;;;;;;;;;;5140969;28;20046;-76
2023/09/04 02:26:15;;;;;;;1.40;0.90;;;;;;;;;;5141395;28;20043;-70
2023/09/04 02:28:42;;;;;;;2.10;1.02;;;;;;;;;;5141731;28;20047;-74
2023/09/04 02:31:08;;;;;;;1.55;0.93;;;;;;;;;;5141532;28;20047;-72
2023/09/04 02:33:35;;;;;;;1.60;1.00;;;;;;;;;;5141392;27;20085;-69
2023/09/04 02:36:02;;;;;;;1.65;1.02;;;;;;;;;;5141721;28;20043;-73
2023/09/04 02:38:29;;;;;;;2.40;1.20;;;;;;;;;;5140797;28;20131;-71
2023/09/04 02:40:56;;;;;;;1.25;0.90;;;;;;;;;;5141065;28;20061;-74
2023/09/04 02:43:23;;;;;;;2.15;1.13;;;;;;;;;;5140799;27;20092;-75
2023/09/04 02:45:50;;;;;;;2.38;1.02;;;;;;;;;;5141315;28;20058;-71
2023/09/04 02:48:17;;;;;;;1.52;0.98;;;;;;;;;;5141330;28;20044;-75
2023/09/04 02:50:44;;;;;;;2.10;1.05;;;;;;;;;;5141341;28;20050;-76
2023/09/04 02:53:10;;;;;;;2.42;1.10;;;;;;;;;;5140560;27;20057;-76
2023/09/04 02:55:37;;;;;;;2.13;0.90;;;;;;;;;;5141161;27;20043;-72
2023/09/04 02:58:04;;;;;;;1.55;0.85;;;;;;;;;;5141118;27;20069;-76
2023/09/04 03:00:30;;;;;;;2.13;1.02;;;;;;;;;;5140976;28;20234;-72
2023/09/04 03:02:57;;;;;;;1.60;0.90;;;;;;;;;;5140704;28;20111;-76
2023/09/04 03:05:25;;;;;;;3.38;0.90;;;;;;;;;;5140873;28;20339;-76
2023/09/04 03:07:52;;;;;;;2.40;1.08;;;;;;;;;;5141698;27;20357;-71
2023/09/04 03:10:18;;;;;;;1.45;0.90;;;;;;;;;;5144851;27;20106;-73
2023/09/04 03:12:45;;;;;;;1.25;0.88;;;;;;;;;;5144724;27;20061;-74
2023/09/04 03:15:12;;;;;;;2.20;1.10;;;;;;;;;;5145127;27;20074;-71
2023/09/04 03:17:38;;;;;;;1.52;0.93;;;;;;;;;;5144751;27;20043;-75
2023/09/04 03:20:09;;;;;;;2.10;0.93;;;;;;;;;;5144682;27;20212;-71
2023/09/04 03:22:36;;;;;;;1.27;0.82;;;;;;;;;;5144057;27;20078;-74
2023/09/04 03:25:03;;;;;;;1.30;0.80;;;;;;;;;;5144593;27;20316;-73
2023/09/04 03:27:29;;;;;;;1.65;1.00;;;;;;;;;;5144642;27;20050;-76
2023/09/04 03:29:56;;;;;;;1.70;0.93;;;;;;;;;;5144724;27;20047;-76
2023/09/04 03:32:23;;;;;;;1.45;0.85;;;;;;;;;;5144171;27;20058;-75
2023/09/04 03:34:50;;;;;;;1.40;0.80;;;;;;;;;;5144219;27;20082;-72
2023/09/04 03:37:17;;;;;;;1.83;0.80;;;;;;;;;;5144360;27;20323;-76
2023/09/04 03:39:43;;;;;;;1.60;0.73;;;;;;;;;;5143726;27;20055;-75
2023/09/04 03:42:10;;;;;;;1.17;0.70;;;;;;;;;;5144283;27;20047;-76
2023/09/04 03:44:36;;;;;;;1.58;0.88;;;;;;;;;;5143996;27;20341;-75
2023/09/04 03:47:03;;;;;;;1.05;0.80;;;;;;;;;;5144507;27;20047;-69
2023/09/04 03:49:30;;;;;;;1.27;0.80;;;;;;;;;;5144114;27;20230;-76
2023/09/04 03:51:57;;;;;;;1.65;0.90;;;;;;;;;;5132271;27;20053;-76
2023/09/04 03:54:23;;;;;;;2.00;0.80;;;;;;;;;;5131691;27;20040;-76
2023/09/04 03:56:50;;;;;;;1.67;0.88;;;;;;;;;;5131777;27;20046;-72
2023/09/04 03:59:17;;;;;;;1.50;0.80;;;;;;;;;;5131965;27;20578;-73
2023/09/04 04:01:43;;;;;;;1.20;0.80;;;;;;;;;;5132282;27;20039;-76
2023/09/04 04:04:11;;;;;;;1.38;0.88;;;;;;;;;;5131871;27;20047;-76
2023/09/04 04:06:38;;;;;;;1.83;1.00;;;;;;;;;;5132047;27;20131;-76
2023/09/04 04:09:06;;;;;;;1.75;1.00;;;;;;;;;;5131675;27;20106;-74
2023/09/04 04:11:35;;;;;;;3.38;0.70;;;;;;;;;;5131863;27;20050;-76
2023/09/04 04:14:02;;;;;;;1.20;0.80;;;;;;;;;;5131670;27;20073;-76
2023/09/04 04:16:32;;;;;;;1.77;1.08;;;;;;;;;;5131881;27;20063;-69
2023/09/04 04:18:59;;;;;;;1.60;0.88;;;;;;;;;;5130847;27;20047;-77
2023/09/04 04:21:26;;;;;;;1.45;1.00;;;;;;;;;;5131634;27;20669;-77
2023/09/04 04:23:52;;;;;;;1.92;0.90;;;;;;;;;;5131288;27;20051;-73
2023/09/04 04:26:19;;;;;;;1.67;0.70;;;;;;;;;;5131643;27;20051;-76
2023/09/04 04:28:46;;;;;;;2.00;1.00;;;;;;;;;;5131257;27;20043;-77
2023/09/04 04:31:12;;;;;;;1.48;0.80;;;;;;;;;;5131028;27;20050;-76
2023/09/04 04:33:39;;;;;;;2.05;1.10;;;;;;;;;;5131297;27;20043;-74
2023/09/04 04:36:06;;;;;;;2.95;1.00;;;;;;;;;;5131507;27;20039;-75
2023/09/04 04:38:32;;;;;;;1.10;0.80;;;;;;;;;;5130767;27;20494;-74
2023/09/04 04:40:59;;;;;;;3.00;1.10;;;;;;;;;;5134388;27;20047;-76
2023/09/04 04:43:26;;;;;;;2.30;1.05;;;;;;;;;;5142796;27;20051;-71
2023/09/04 04:45:55;;;;;;;2.72;1.00;;;;;;;;;;5142887;27;20042;-73
2023/09/04 04:48:21;;;;;;;2.05;1.10;;;;;;;;;;5142761;27;20239;-72
2023/09/04 04:50:49;;;;;;;3.85;1.20;;;;;;;;;;5141979;27;20051;-75
2023/09/04 04:53:15;;;;;;;2.75;1.27;;;;;;;;;;5141347;27;20055;-75
2023/09/04 04:55:42;;;;;;;4.10;1.10;;;;;;;;;;5139821;27;20240;-69
2023/09/04 04:58:09;;;;;;;2.22;1.20;;;;;;;;;;5142384;27;20054;-70
2023/09/04 05:00:35;;;;;;;2.60;1.10;;;;;;;;;;5134744;27;20047;-71
2023/09/04 05:03:02;;;;;;;2.50;1.10;;;;;;;;;;5126430;27;20047;-73
2023/09/04 05:05:29;;;;;;;3.08;1.20;;;;;;;;;;5129289;27;20884;-73
2023/09/04 05:07:55;;;;;;;1.67;0.95;;;;;;;;;;5134938;27;20327;-71
2023/09/04 05:10:22;;;;;;;25.33;6.00;;;;;;;;;;5139845;27;20039;-71
2023/09/04 05:12:49;;;;;;;3.60;1.40;;;;;;;;;;5142579;27;20083;-70
2023/09/04 05:15:15;;;;;;;1.33;0.95;;;;;;;;;;5139249;27;20040;-70
2023/09/04 05:17:42;;;;;;;2.60;1.13;;;;;;;;;;5137486;27;20043;-76
2023/09/04 05:20:10;;;;;;;1.92;1.05;;;;;;;;;;5140239;27;20144;-76
2023/09/04 05:22:37;;;;;;;3.47;1.40;;;;;;;;;;5139435;27;20053;-70
2023/09/04 05:25:04;;;;;;;1.73;1.10;;;;;;;;;;5138422;27;20044;-71
2023/09/04 05:27:31;;;;;;;2.40;1.13;;;;;;;;;;5140406;27;20043;-69
2023/09/04 05:29:57;;;;;;;2.15;1.13;;;;;;;;;;5140590;27;20073;-72
2023/09/04 05:32:24;;;;;;;2.65;1.15;;;;;;;;;;5130174;27;20043;-71
2023/09/04 05:34:52;;;;;;;2.53;1.20;;;;;;;;;;5127973;27;20051;-68
2023/09/04 05:37:19;;;;;;;2.35;1.10;;;;;;;;;;5127756;27;20517;-69
2023/09/04 05:39:46;;;;;;;3.88;1.08;;;;;;;;;;5108786;27;20051;-69
2023/09/04 05:42:13;;;;;;;2.40;1.10;;;;;;;;;;5127723;27;20510;-70
2023/09/04 05:44:40;;;;;;;3.05;1.20;;;;;;;;;;5127542;27;20050;-68
2023/09/04 05:47:06;;;;;;;2.70;1.05;;;;;;;;;;5128688;27;20440;-70
2023/09/04 05:49:33;;;;;;;2.00;1.10;;;;;;;;;;5128867;27;20516;-68
2023/09/04 05:52:00;;;;;;;4.32;1.27;;;;;;;;;;5129566;27;20132;-69
2023/09/04 05:54:26;;;;;;;1.52;0.80;;;;;;;;;;5129308;27;20547;-71
2023/09/04 05:56:53;;;;;;;3.85;1.00;;;;;;;;;;5129800;27;20407;-68
2023/09/04 05:59:20;;;;;;;2.47;1.20;;;;;;;;;;5129056;27;20051;-69
2023/09/04 06:01:46;;;;;;;1.88;1.10;;;;;;;;;;5130001;27;20047;-69
2023/09/04 06:04:13;;;;;;;2.95;1.30;;;;;;;;;;5129538;27;20055;-69
2023/09/04 06:06:39;;;;;;;2.42;1.02;;;;;;;;;;5130149;27;20050;-72
2023/09/04 06:09:07;;;;;;;1.60;1.00;;;;;;;;;;5129444;27;20054;-68
2023/09/04 06:11:34;;;;;;;4.65;1.00;;;;;;;;;;5129686;27;20134;-71
2023/09/04 06:14:01;;;;;;;5.47;1.10;;;;;;;;;;5129482;27;20090;-68
2023/09/04 06:16:28;;;;;;;2.15;1.10;;;;;;;;;;5129738;27;20058;-70
2023/09/04 06:18:54;;;;;;;4.07;1.10;;;;;;;;;;5129745;27;20047;-69
2023/09/04 06:21:21;;;;;;;4.22;1.30;;;;;;;;;;5111210;28;20574;-68
2023/09/04 06:23:47;;;;;;;2.42;1.30;;;;;;;;;;5129454;28;20051;-69
2023/09/04 06:26:14;;;;;;;2.28;1.13;;;;;;;;;;5129518;27;20111;-69
2023/09/04 06:28:41;;;;;;;2.13;1.15;;;;;;;;;;5129912;27;20099;-70
2023/09/04 06:31:08;;;;;;;1.70;1.05;;;;;;;;;;5129758;28;20440;-69
2023/09/04 06:33:37;;;;;;;4.07;1.30;;;;;;;;;;5129638;27;20051;-71
2023/09/04 06:36:05;;;;;;;1.42;0.98;;;;;;;;;;5129201;28;20047;-68
2023/09/04 06:38:32;;;;;;;3.42;1.23;;;;;;;;;;5129393;28;20050;-69
2023/09/04 06:40:58;;;;;;;1.38;0.93;;;;;;;;;;5129192;28;20534;-71
2023/09/04 06:43:28;;;;;;;3.78;1.15;;;;;;;;;;5131810;27;20503;-70
2023/09/04 06:45:55;;;;;;;2.70;1.37;;;;;;;;;;5133601;27;20048;-68
2023/09/04 06:48:21;;;;;;;2.78;1.10;;;;;;;;;;5133636;27;20509;-69
2023/09/04 06:50:51;;;;;;;2.88;1.13;;;;;;;;;;5133426;27;20122;-69
2023/09/04 06:53:18;;;;;;;2.47;1.10;;;;;;;;;;5132829;27;20047;-68
2023/09/04 06:55:50;;;;;;;3.72;1.10;;;;;;;;;;5132918;27;20607;-69
2023/09/04 06:58:16;;;;;;;2.22;1.20;;;;;;;;;;5133505;27;20051;-70
2023/09/04 07:00:46;;;;;;;1.85;1.10;;;;;;;;;;5133688;27;20103;-69
2023/09/04 07:03:19;;;;;;;2.45;1.25;;;;;;;;;;5133502;27;20131;-69
2023/09/04 07:05:46;;;;;;;1.67;1.05;;;;;;;;;;5132811;27;20349;-69
2023/09/04 07:08:12;;;;;;;3.05;1.17;;;;;;;;;;5132869;27;20103;-72
2023/09/04 07:10:39;;;;;;;2.50;1.20;;;;;;;;;;5132802;27;20039;-70
2023/09/04 07:13:06;;;;;;;2.60;1.25;;;;;;;;;;5133042;27;20461;-70
2023/09/04 07:15:33;;;;;;;2.95;1.20;;;;;;;;;;5132710;27;20130;-70
2023/09/04 07:18:00;;;;;;;2.60;1.30;;;;;;;;;;5133233;27;20039;-68
2023/09/04 07:20:27;;;;;;;2.78;1.08;;;;;;;;;;5132964;27;20115;-69
2023/09/04 07:22:54;;;;;;;2.33;0.90;;;;;;;;;;5132744;27;20232;-68
2023/09/04 07:25:40;;;;;;;3.97;1.30;;;;;;;;;;5116997;27;20491;-68
2023/09/04 07:28:06;;;;;;;5.97;1.35;;;;;;;;;;5133075;27;20310;-70
2023/09/04 07:30:33;;;;;;;3.22;1.20;;;;;;;;;;5132631;27;20051;-69
2023/09/04 07:33:00;;;;;;;1.77;1.10;;;;;;;;;;5132527;27;20503;-71
2023/09/04 07:35:27;;;;;;;2.85;1.27;;;;;;;;;;5132307;27;20050;-68
2023/09/04 07:37:54;;;;;;;2.20;1.20;;;;;;;;;;5132618;27;20046;-69
2023/09/04 07:40:20;;;;;;;3.22;1.30;;;;;;;;;;5132315;27;20080;-69
2023/09/04 07:42:47;;;;;;;1.75;1.02;;;;;;;;;;5132572;27;20569;-71
2023/09/04 07:45:15;;;;;;;3.58;1.30;;;;;;;;;;5132102;27;20074;-70
2023/09/04 07:47:42;;;;;;;2.97;1.38;;;;;;;;;;5132382;27;20051;-69
2023/09/04 07:50:09;;;;;;;3.78;1.30;;;;;;;;;;5132403;27;20054;-68
2023/09/04 07:52:35;;;;;;;3.17;1.33;;;;;;;;;;5131825;27;20039;-71
2023/09/04 07:55:02;;;;;;;2.15;1.40;;;;;;;;;;5130712;27;20057;-70
2023/09/04 07:57:29;;;;;;;3.70;1.45;;;;;;;;;;5132380;27;20050;-70
2023/09/04 07:59:55;;;;;;;1.85;1.17;;;;;;;;;;5132174;27;20050;-69
2023/09/04 08:02:22;;;;;;;2.40;1.35;;;;;;;;;;5131591;27;20043;-72
2023/09/04 08:04:49;;;;;;;2.55;1.30;;;;;;;;;;5132070;27;20043;-71
2023/09/04 08:07:15;;;;;;;2.63;1.27;;;;;;;;;;5131891;27;20498;-72
2023/09/04 08:09:42;;;;;;;3.28;1.20;;;;;;;;;;5132148;27;20137;-71
2023/09/04 08:12:09;;;;;;;3.72;1.23;;;;;;;;;;5131904;27;20043;-72
2023/09/04 08:14:36;;;;;;;3.45;1.20;;;;;;;;;;5131903;27;20043;-69
2023/09/04 08:17:03;;;;;;;3.80;1.05;;;;;;;;;;5131743;27;20062;-72
2023/09/04 08:19:30;;;;;;;2.80;1.40;;;;;;;;;;5131777;27;20047;-69
2023/09/04 08:21:58;;;;;;;2.97;1.48;;;;;;;;;;5131731;27;20039;-71
2023/09/04 08:24:25;;;;;;;2.50;1.20;;;;;;;;;;5131586;27;20077;-69
2023/09/04 08:26:51;;;;;;;2.20;1.10;;;;;;;;;;5131653;27;20048;-69
2023/09/04 08:29:18;;;;;;;3.30;1.25;;;;;;;;;;5131772;27;20047;-68
2023/09/04 08:31:45;;;;;;;3.78;1.20;;;;;;;;;;5131392;27;20043;-69
2023/09/04 08:34:11;;;;;;;2.67;1.20;;;;;;;;;;5131858;27;20047;-68
2023/09/04 08:36:38;;;;;;;3.63;1.38;;;;;;;;;;5131039;27;20074;-68
2023/09/04 08:39:05;;;;;;;5.53;1.40;;;;;;;;;;5130861;27;20059;-68
2023/09/04 08:41:32;;;;;;;2.88;1.30;;;;;;;;;;5131269;27;20049;-70
2023/09/04 08:43:59;;;;;;;3.88;1.50;;;;;;;;;;5131754;27;20039;-69
2023/09/04 08:46:28;;;;;;;2.45;1.35;;;;;;;;;;5130754;27;20472;-69
2023/09/04 08:49:00;;;;;;;2.67;1.25;;;;;;;;;;5131775;27;20130;-68
2023/09/04 08:51:27;;;;;;;3.72;1.25;;;;;;;;;;5130791;27;20051;-69
2023/09/04 08:53:55;;;;;;;2.58;1.08;;;;;;;;;;5130767;27;20055;-69
2023/09/04 08:56:28;;;;;;;3.83;1.35;;;;;;;;;;5130673;27;20051;-69
2023/09/04 08:58:55;;;;;;;5.60;1.40;;;;;;;;;;5130964;27;20058;-72
2023/09/04 09:01:26;;;;;;;1.95;1.10;;;;;;;;;;5130775;27;20047;-70
2023/09/04 09:03:53;;;;;;;3.00;1.20;;;;;;;;;;5131479;27;20134;-70
2023/09/04 09:06:23;;;;;;;2.13;1.15;;;;;;;;;;5130248;27;20509;-69
2023/09/04 09:08:53;;;;;;;5.00;1.20;;;;;;;;;;5130641;27;20043;-70
2023/09/04 09:11:22;;;;;;;6.05;1.20;;;;;;;;;;5130632;27;20054;-70
2023/09/04 09:13:49;;;;;;;2.60;1.20;;;;;;;;;;5130520;27;20050;-71
2023/09/04 09:16:19;;;;;;;4.07;1.33;;;;;;;;;;5130694;27;20136;-69
2023/09/04 09:18:48;;;;;;;2.38;1.13;;;;;;;;;;5130862;27;20126;-68
2023/09/04 09:21:24;;;;;;;4.18;1.20;;;;;;;;;;5130639;27;20047;-69
2023/09/04 09:24:14;;;;;;;2.85;0.90;;;;;;;;;;5130439;27;20047;-70
2023/09/04 09:26:44;;;;;;;4.28;1.10;;;;;;;;;;5130345;27;20043;-71
2023/09/04 09:29:12;;;;;;;1.95;1.20;;;;;;;;;;5130898;27;20078;-70
2023/09/04 09:31:42;;;;;;;4.80;1.30;;;;;;;;;;5130423;27;20054;-72
2023/09/04 09:34:10;;;;;;;2.92;1.30;;;;;;;;;;5130600;27;20143;-73
2023/09/04 09:36:38;;;;;;;2.05;1.25;;;;;;;;;;5129949;27;20514;-69
2023/09/04 09:39:05;;;;;;;1.63;1.02;;;;;;;;;;5130022;27;20093;-69
2023/09/04 09:41:33;;;;;;;2.70;1.08;;;;;;;;;;5130167;27;20469;-69
2023/09/04 09:44:02;;;;;;;4.18;1.30;;;;;;;;;;5130771;27;20047;-71
2023/09/04 09:46:29;;;;;;;2.33;1.10;;;;;;;;;;5130169;27;20145;-72
2023/09/04 09:48:56;;;;;;;4.35;1.20;;;;;;;;;;5130108;27;20055;-72
2023/09/04 09:51:25;;;;;;;3.13;1.20;;;;;;;;;;5130190;27;20137;-71
2023/09/04 09:53:53;;;;;;;3.55;1.02;;;;;;;;;;5129862;27;20069;-72
2023/09/04 09:56:20;;;;;;;3.72;1.38;;;;;;;;;;5130035;27;20512;-71
2023/09/04 09:58:49;;;;;;;4.13;1.23;;;;;;;;;;5130207;27;20057;-68
2023/09/04 10:01:17;;;;;;;1.50;1.10;;;;;;;;;;5130268;27;20064;-68
2023/09/04 10:03:46;;;;;;;3.95;1.20;;;;;;;;;;5129818;27;20434;-70
2023/09/04 10:06:24;;;;;;;2.95;0.95;;;;;;;;;;5130129;27;20243;-69
2023/09/04 10:08:52;;;;;;;3.97;1.00;;;;;;;;;;5129697;27;20047;-69
2023/09/04 10:11:19;;;;;;;2.42;1.10;;;;;;;;;;5129991;27;20444;-71
2023/09/04 10:13:55;;;;;;;2.03;0.90;;;;;;;;;;5129780;27;20051;-69
2023/09/04 10:16:32;;;;;;;2.63;1.00;;;;;;;;;;5130215;27;20051;-68
2023/09/04 10:19:02;;;;;;;2.33;1.20;;;;;;;;;;5129408;27;20085;-69
2023/09/04 10:21:34;;;;;;;3.05;1.38;;;;;;;;;;5129838;27;20039;-71
2023/09/04 10:24:02;;;;;;;10.20;1.40;;;;;;;;;;5129431;28;20506;-71
2023/09/04 10:26:38;;;;;;;2.75;1.08;;;;;;;;;;5129464;27;20419;-70
2023/09/04 10:29:16;;;;;;;3.45;1.10;;;;;;;;;;5129727;28;20085;-69
2023/09/04 10:31:44;;;;;;;2.53;1.27;;;;;;;;;;5129928;27;20047;-70
2023/09/04 10:34:11;;;;;;;4.55;1.10;;;;;;;;;;5129956;28;20043;-71
2023/09/04 10:36:39;;;;;;;2.78;1.20;;;;;;;;;;5129357;28;20039;-71
2023/09/04 10:39:08;;;;;;;4.43;1.13;;;;;;;;;;5128814;28;20054;-71
2023/09/04 10:41:35;;;;;;;4.80;1.58;;;;;;;;;;5129674;28;20057;-69
2023/09/04 10:44:02;;;;;;;3.33;1.30;;;;;;;;;;5129158;28;20039;-69
2023/09/04 10:46:29;;;;;;;2.40;1.00;;;;;;;;;;5129139;28;20063;-69
2023/09/04 10:48:56;;;;;;;2.05;0.88;;;;;;;;;;5129398;28;20050;-69
2023/09/04 10:51:34;;;;;;;2.10;1.08;;;;;;;;;;5129521;28;20483;-72
2023/09/04 10:54:23;;;;;;;3.00;1.02;;;;;;;;;;5128827;28;20055;-69
2023/09/04 10:57:00;;;;;;;2.10;1.20;;;;;;;;;;5129400;28;20050;-72
2023/09/04 10:59:28;;;;;;;1.80;1.00;;;;;;;;;;5129420;28;20043;-69
2023/09/04 11:01:55;;;;;;;3.33;1.23;;;;;;;;;;5129142;28;20043;-70
2023/09/04 11:04:46;;;;;;;2.60;1.00;;;;;;;;;;5129252;28;20039;-71
2023/09/04 11:07:21;;;;;;;2.58;1.00;;;;;;;;;;5129130;28;20073;-72
2023/09/04 11:09:51;;;;;;;2.38;1.15;;;;;;;;;;5128772;27;20138;-70
2023/09/04 11:12:19;;;;;;;3.35;1.30;;;;;;;;;;5128972;27;20055;-72
2023/09/04 11:14:47;;;;;;;5.85;0.82;;;;;;;;;;5129273;28;20047;-70
2023/09/04 11:17:20;;;;;;;3.20;1.40;;;;;;;;;;5129119;28;20495;-72
2023/09/04 11:19:50;;;;;;;1.92;0.90;;;;;;;;;;5129069;28;20502;-69
2023/09/04 11:22:27;;;;;;;3.67;1.77;;;;;;;;;;5129283;27;20043;-72
2023/09/04 11:24:54;;;;;;;1.92;1.13;;;;;;;;;;5128964;27;20810;-70
2023/09/04 11:27:23;;;;;;;3.08;1.20;;;;;;;;;;5129121;28;20635;-71
2023/09/04 11:29:50;;;;;;;3.10;1.08;;;;;;;;;;5132010;27;20049;-69
2023/09/04 11:32:18;;;;;;;2.80;1.15;;;;;;;;;;5133199;27;20047;-70
2023/09/04 11:34:50;;;;;;;6.57;1.20;;;;;;;;;;5132405;27;20051;-68
2023/09/04 11:37:16;;;;;;;2.55;1.23;;;;;;;;;;5132464;27;20427;-69
2023/09/04 11:39:56;;;;;;;4.65;1.10;;;;;;;;;;5131992;27;20564;-70
2023/09/04 11:42:30;;;;;;;5.22;1.30;;;;;;;;;;5132714;27;20638;-70
2023/09/04 11:44:57;;;;;;;6.40;1.23;;;;;;;;;;5132807;27;20118;-69
2023/09/04 11:47:24;;;;;;;3.95;1.15;;;;;;;;;;5132815;27;20043;-72
2023/09/04 11:49:51;;;;;;;4.40;1.30;;;;;;;;;;5132362;27;20047;-70
2023/09/04 11:52:18;;;;;;;1.77;1.13;;;;;;;;;;5132577;27;20515;-69
2023/09/04 11:54:45;;;;;;;1.38;0.98;;;;;;;;;;5131882;27;20050;-68
2023/09/04 11:57:12;;;;;;;1.33;0.93;;;;;;;;;;5132038;27;20043;-70
2023/09/04 11:59:40;;;;;;;2.72;1.05;;;;;;;;;;5132516;27;20047;-71
2023/09/04 12:02:08;;;;;;;4.20;1.10;;;;;;;;;;5132352;27;20043;-69
2023/09/04 12:04:35;;;;;;;1.80;0.95;;;;;;;;;;5132458;27;20043;-71
2023/09/04 12:07:04;;;;;;;2.42;1.17;;;;;;;;;;5132184;27;20130;-72
2023/09/04 12:09:31;;;;;;;4.55;1.20;;;;;;;;;;5131635;27;20065;-68
2023/09/04 12:11:58;;;;;;;1.42;1.00;;;;;;;;;;5132236;27;20039;-69
2023/09/04 12:14:25;;;;;;;2.15;1.20;;;;;;;;;;5131744;27;20071;-69
2023/09/04 12:16:52;;;;;;;3.60;1.20;;;;;;;;;;5132379;27;20068;-70
2023/09/04 12:19:22;;;;;;;3.15;1.23;;;;;;;;;;5132071;27;20047;-69
2023/09/04 12:21:49;;;;;;;2.90;1.00;;;;;;;;;;5132797;27;20078;-69
2023/09/04 12:24:18;;;;;;;1.98;1.02;;;;;;;;;;5131713;27;20050;-69
2023/09/04 12:26:48;;;;;;;2.08;1.10;;;;;;;;;;5131823;27;20399;-68
2023/09/04 12:29:17;;;;;;;5.65;1.15;;;;;;;;;;5131388;27;20047;-69
2023/09/04 12:31:43;;;;;;;2.38;1.10;;;;;;;;;;5131614;27;20078;-69
2023/09/04 12:34:10;;;;;;;2.53;1.20;;;;;;;;;;5131657;27;20051;-73
2023/09/04 12:36:39;;;;;;;2.97;1.13;;;;;;;;;;5131687;27;20667;-68
2023/09/04 12:39:05;;;;;;;4.15;1.20;;;;;;;;;;5130620;27;20093;-68
2023/09/04 12:41:33;;;;;;;3.33;0.80;;;;;;;;;;5131199;27;20130;-69
2023/09/04 12:44:00;;;;;;;6.35;1.30;;;;;;;;;;5131427;27;20077;-69
2023/09/04 12:46:27;;;;;;;4.22;1.00;;;;;;;;;;5131490;27;20043;-69
2023/09/04 12:48:54;;;;;;;3.03;1.20;;;;;;;;;;5131354;27;20055;-70
2023/09/04 12:51:21;;;;;;;2.22;1.15;;;;;;;;;;5131482;27;20054;-69
2023/09/04 12:53:47;;;;;;;1.85;1.00;;;;;;;;;;5130489;27;20050;-72
2023/09/04 12:56:14;;;;;;;3.33;1.13;;;;;;;;;;5131394;27;20046;-69
2023/09/04 12:58:41;;;;;;;1.90;1.20;;;;;;;;;;5130859;27;20043;-72
2023/09/04 13:01:07;;;;;;;4.00;1.05;;;;;;;;;;5131524;27;20092;-69
2023/09/04 13:03:34;;;;;;;3.90;1.00;;;;;;;;;;5131477;27;20057;-72
2023/09/04 13:06:01;;;;;;;4.20;0.90;;;;;;;;;;5130856;27;20509;-71
2023/09/04 13:08:27;;;;;;;5.45;1.00;;;;;;;;;;5130486;27;20039;-69
2023/09/04 13:10:54;;;;;;;4.60;1.10;;;;;;;;;;5130808;27;20047;-71
2023/09/04 13:13:23;;;;;;;4.10;0.98;;;;;;;;;;5131184;27;20055;-70
2023/09/04 13:15:50;;;;;;;1.52;0.90;;;;;;;;;;5130676;27;20043;-69
2023/09/04 13:18:17;;;;;;;4.03;1.40;;;;;;;;;;5130974;27;20047;-69
2023/09/04 13:20:43;;;;;;;1.15;0.75;;;;;;;;;;5130693;27;20073;-71
2023/09/04 13:23:10;;;;;;;1.30;0.93;;;;;;;;;;5130694;27;20045;-69
2023/09/04 13:25:37;;;;;;;1.75;1.05;;;;;;;;;;5130411;27;20525;-71
2023/09/04 13:28:04;;;;;;;2.13;0.90;;;;;;;;;;5130749;27;20047;-69
2023/09/04 13:30:31;;;;;;;2.50;1.00;;;;;;;;;;5130386;27;20051;-70
2023/09/04 13:32:57;;;;;;;5.50;1.10;;;;;;;;;;5130764;27;20054;-68
2023/09/04 13:35:24;;;;;;;2.35;1.13;;;;;;;;;;5130143;27;20047;-72
2023/09/04 13:37:51;;;;;;;4.63;1.20;;;;;;;;;;5130201;27;20070;-69
2023/09/04 13:40:18;;;;;;;1.95;1.10;;;;;;;;;;5129879;27;20486;-69
2023/09/04 13:42:44;;;;;;;2.97;0.80;;;;;;;;;;5130236;27;20054;-68
2023/09/04 13:45:11;;;;;;;1.85;0.80;;;;;;;;;;5130081;27;20050;-70
2023/09/04 13:47:38;;;;;;;5.72;1.10;;;;;;;;;;5130607;27;20063;-69
2023/09/04 13:50:05;;;;;;;2.75;0.90;;;;;;;;;;5129977;27;20043;-69
2023/09/04 13:52:32;;;;;;;2.30;0.98;;;;;;;;;;5129940;27;20043;-71
2023/09/04 13:54:59;;;;;;;2.67;0.98;;;;;;;;;;5130296;27;20055;-69
2023/09/04 13:57:25;;;;;;;1.70;0.90;;;;;;;;;;5130030;27;20667;-72
2023/09/04 13:59:52;;;;;;;2.97;1.00;;;;;;;;;;5129890;27;20039;-69
2023/09/04 14:02:19;;;;;;;4.90;1.00;;;;;;;;;;5129930;27;20051;-69
2023/09/04 14:04:46;;;;;;;4.15;1.05;;;;;;;;;;5129805;27;20082;-69
2023/09/04 14:07:12;;;;;;;3.13;0.90;;;;;;;;;;5130263;27;20040;-70
2023/09/04 14:09:39;;;;;;;3.58;1.00;;;;;;;;;;5129654;27;20560;-69
2023/09/04 14:12:08;;;;;;;4.65;1.08;;;;;;;;;;5130244;27;20058;-68
2023/09/04 14:14:35;;;;;;;2.65;0.90;;;;;;;;;;5129857;27;20045;-69
2023/09/04 14:17:02;;;;;;;1.98;0.90;;;;;;;;;;5130048;27;20061;-71
2023/09/04 14:19:28;;;;;;;2.28;0.90;;;;;;;;;;5129927;27;20043;-70
2023/09/04 14:21:55;;;;;;;3.22;1.10;;;;;;;;;;5129681;27;20039;-69
2023/09/04 14:24:22;;;;;;;2.38;0.98;;;;;;;;;;5129542;28;20096;-69
2023/09/04 14:26:49;;;;;;;5.03;1.30;;;;;;;;;;5130198;28;20062;-72
2023/09/04 14:29:16;;;;;;;3.58;0.95;;;;;;;;;;5129752;27;20662;-70
2023/09/04 14:31:43;;;;;;;3.25;0.95;;;;;;;;;;5129415;28;20051;-69
2023/09/04 14:34:10;;;;;;;1.77;0.90;;;;;;;;;;5129954;28;20039;-69
2023/09/04 14:36:37;;;;;;;3.35;1.08;;;;;;;;;;5129717;28;20043;-70
2023/09/04 14:39:05;;;;;;;1.95;1.02;;;;;;;;;;5129156;28;20050;-72
2023/09/04 14:41:32;;;;;;;2.83;0.95;;;;;;;;;;5129506;28;20046;-72
2023/09/04 14:43:59;;;;;;;3.95;1.00;;;;;;;;;;5129851;28;20050;-72
2023/09/04 14:46:27;;;;;;;1.83;1.08;;;;;;;;;;5129886;27;20051;-71